首页
METAR-TAF:

METAR-TAF

机场 :

墨爾本機場

墨尔本, 澳大利亚

纬度: 37-40-24S, 经度: 144-50-36E, 海拔: 132米

当前天气观测

该预报发布于16分钟前的06:30 UTC
风速9节,风向北转东北
温度 14°C
湿度 55%
气压 1033 hPa
能见度10公里或以上
1500米以下无云,无积雨云

METAR: YMML 250630Z 02009KT CAVOK 14/05 Q1033 NOSIG

时间: 16:46 (06:46 UTC)

预报

该预报发布于1小时和53分钟前的04:53 UTC
预报有效从25日的 06点(UTC)到 26日的 06点(UTC)
风速10节,风向
能见度10公里或以上
1500米以下无云,无积雨云

TAF: YMML 250453Z 2506/2606 01010KT CAVOK

超过4000个机场的气象观测和天气预报(METAR&TAF报告)。

可查询的气象台以黄色和红色小点在地图上表示。

将鼠标移到小点上方,可查看气象台名称。

然后点击查看天气观测和预报。

如需切换地图:点击带黑十字的绿色按钮放大地图;点击带横线的绿色按钮缩小地图;或者点击绿色箭头查看邻近地区的地图。


METAR-TAF: